sensor_id;sensor_type;location;lat;lon;timestamp;temperature;humidity
5128;DHT22;2582;48.770;9.190;2023-05-16T00:01:33;14.10;99.90
5128;DHT22;2582;48.770;9.190;2023-05-16T00:03:59;14.10;99.90
5128;DHT22;2582;48.770;9.190;2023-05-16T00:06:25;14.10;99.90
5128;DHT22;2582;48.770;9.190;2023-05-16T00:08:51;14.20;99.90
5128;DHT22;2582;48.770;9.190;2023-05-16T00:11:16;14.10;99.90
5128;DHT22;2582;48.770;9.190;2023-05-16T00:13:42;14.20;99.90
5128;DHT22;2582;48.770;9.190;2023-05-16T00:16:08;14.10;99.90
5128;DHT22;2582;48.770;9.190;2023-05-16T00:18:34;14.10;99.90
5128;DHT22;2582;48.770;9.190;2023-05-16T00:21:04;14.10;99.90
5128;DHT22;2582;48.770;9.190;2023-05-16T00:23:30;14.20;99.90
5128;DHT22;2582;48.770;9.190;2023-05-16T00:25:56;14.30;99.90
5128;DHT22;2582;48.770;9.190;2023-05-16T00:28:22;14.20;99.90
5128;DHT22;2582;48.770;9.190;2023-05-16T00:30:47;14.20;99.90
5128;DHT22;2582;48.770;9.190;2023-05-16T00:33:13;14.20;99.90
5128;DHT22;2582;48.770;9.190;2023-05-16T00:35:38;14.30;99.90
5128;DHT22;2582;48.770;9.190;2023-05-16T00:38:04;14.40;99.90
5128;DHT22;2582;48.770;9.190;2023-05-16T00:40:30;14.50;99.90
5128;DHT22;2582;48.770;9.190;2023-05-16T00:42:56;14.40;99.90
5128;DHT22;2582;48.770;9.190;2023-05-16T00:45:21;14.50;99.90
5128;DHT22;2582;48.770;9.190;2023-05-16T00:47:47;14.40;99.90
5128;DHT22;2582;48.770;9.190;2023-05-16T00:50:12;14.50;99.90
5128;DHT22;2582;48.770;9.190;2023-05-16T00:52:38;14.50;99.90
5128;DHT22;2582;48.770;9.190;2023-05-16T00:55:04;14.50;99.90
5128;DHT22;2582;48.770;9.190;2023-05-16T00:57:30;14.40;99.90
5128;DHT22;2582;48.770;9.190;2023-05-16T00:59:56;14.50;99.90
5128;DHT22;2582;48.770;9.190;2023-05-16T01:02:22;14.50;99.90
5128;DHT22;2582;48.770;9.190;2023-05-16T01:04:48;14.50;99.90
5128;DHT22;2582;48.770;9.190;2023-05-16T01:07:14;14.50;99.90
5128;DHT22;2582;48.770;9.190;2023-05-16T01:09:39;14.60;99.90
5128;DHT22;2582;48.770;9.190;2023-05-16T01:18:01;14.60;99.90
5128;DHT22;2582;48.770;9.190;2023-05-16T01:26:14;14.20;99.90
5128;DHT22;2582;48.770;9.190;2023-05-16T01:28:40;14.20;99.90
5128;DHT22;2582;48.770;9.190;2023-05-16T01:31:06;14.10;99.90
5128;DHT22;2582;48.770;9.190;2023-05-16T01:33:32;13.80;99.90
5128;DHT22;2582;48.770;9.190;2023-05-16T01:41:15;13.70;99.90
5128;DHT22;2582;48.770;9.190;2023-05-16T01:43:45;13.80;99.90
5128;DHT22;2582;48.770;9.190;2023-05-16T01:46:29;13.60;99.90
5128;DHT22;2582;48.770;9.190;2023-05-16T01:49:15;13.60;99.90
5128;DHT22;2582;48.770;9.190;2023-05-16T01:51:50;13.70;99.90
5128;DHT22;2582;48.770;9.190;2023-05-16T01:54:18;13.70;99.90
5128;DHT22;2582;48.770;9.190;2023-05-16T01:56:51;13.90;99.90
5128;DHT22;2582;48.770;9.190;2023-05-16T01:59:19;14.00;99.90
5128;DHT22;2582;48.770;9.190;2023-05-16T02:01:46;13.80;99.90
5128;DHT22;2582;48.770;9.190;2023-05-16T02:04:12;13.80;99.90
5128;DHT22;2582;48.770;9.190;2023-05-16T02:06:39;13.60;99.90
5128;DHT22;2582;48.770;9.190;2023-05-16T02:09:05;13.60;99.90
5128;DHT22;2582;48.770;9.190;2023-05-16T02:11:31;13.50;99.90
5128;DHT22;2582;48.770;9.190;2023-05-16T02:13:56;13.60;99.90
5128;DHT22;2582;48.770;9.190;2023-05-16T02:16:22;13.50;99.90
5128;DHT22;2582;48.770;9.190;2023-05-16T02:18:47;13.50;99.90
5128;DHT22;2582;48.770;9.190;2023-05-16T02:21:13;13.80;99.90
5128;DHT22;2582;48.770;9.190;2023-05-16T02:23:39;13.60;99.90
5128;DHT22;2582;48.770;9.190;2023-05-16T02:26:04;13.70;99.90
5128;DHT22;2582;48.770;9.190;2023-05-16T02:28:30;13.60;99.90
5128;DHT22;2582;48.770;9.190;2023-05-16T02:30:57;13.50;99.90
5128;DHT22;2582;48.770;9.190;2023-05-16T02:33:23;13.50;99.90
5128;DHT22;2582;48.770;9.190;2023-05-16T02:35:49;13.50;99.90
5128;DHT22;2582;48.770;9.190;2023-05-16T02:38:15;13.60;99.90
5128;DHT22;2582;48.770;9.190;2023-05-16T02:40:42;13.50;99.90
5128;DHT22;2582;48.770;9.190;2023-05-16T02:43:07;13.30;99.90
5128;DHT22;2582;48.770;9.190;2023-05-16T02:45:33;13.50;99.90
5128;DHT22;2582;48.770;9.190;2023-05-16T02:47:58;13.60;99.90
5128;DHT22;2582;48.770;9.190;2023-05-16T02:50:24;13.80;99.90
5128;DHT22;2582;48.770;9.190;2023-05-16T02:52:49;13.70;99.90
5128;DHT22;2582;48.770;9.190;2023-05-16T02:55:15;13.80;99.90
5128;DHT22;2582;48.770;9.190;2023-05-16T02:57:40;14.00;99.90
5128;DHT22;2582;48.770;9.190;2023-05-16T03:00:06;14.00;99.90
5128;DHT22;2582;48.770;9.190;2023-05-16T03:02:34;14.00;99.90
5128;DHT22;2582;48.770;9.190;2023-05-16T03:04:59;14.10;99.90
5128;DHT22;2582;48.770;9.190;2023-05-16T03:07:25;13.60;99.90
5128;DHT22;2582;48.770;9.190;2023-05-16T03:09:50;13.60;99.90
5128;DHT22;2582;48.770;9.190;2023-05-16T03:12:16;13.70;99.90
5128;DHT22;2582;48.770;9.190;2023-05-16T03:14:42;13.70;99.90
5128;DHT22;2582;48.770;9.190;2023-05-16T03:17:07;13.70;99.90
5128;DHT22;2582;48.770;9.190;2023-05-16T03:19:33;13.60;99.90
5128;DHT22;2582;48.770;9.190;2023-05-16T03:21:59;13.70;99.90
5128;DHT22;2582;48.770;9.190;2023-05-16T03:24:24;13.90;99.90
5128;DHT22;2582;48.770;9.190;2023-05-16T03:26:50;13.90;99.90
5128;DHT22;2582;48.770;9.190;2023-05-16T03:29:16;13.60;99.90
5128;DHT22;2582;48.770;9.190;2023-05-16T03:31:42;13.50;99.90
5128;DHT22;2582;48.770;9.190;2023-05-16T03:34:07;13.50;99.90
5128;DHT22;2582;48.770;9.190;2023-05-16T03:36:33;13.50;99.90
5128;DHT22;2582;48.770;9.190;2023-05-16T03:39:00;13.40;99.90
5128;DHT22;2582;48.770;9.190;2023-05-16T03:41:25;13.30;99.90
5128;DHT22;2582;48.770;9.190;2023-05-16T03:43:51;13.40;99.90
5128;DHT22;2582;48.770;9.190;2023-05-16T03:46:16;13.20;99.90
5128;DHT22;2582;48.770;9.190;2023-05-16T03:48:42;13.40;99.90
5128;DHT22;2582;48.770;9.190;2023-05-16T03:51:08;13.40;99.90
5128;DHT22;2582;48.770;9.190;2023-05-16T03:53:33;13.30;99.90
5128;DHT22;2582;48.770;9.190;2023-05-16T03:55:59;13.40;99.90
5128;DHT22;2582;48.770;9.190;2023-05-16T03:58:24;13.30;99.90
5128;DHT22;2582;48.770;9.190;2023-05-16T04:00:50;13.30;99.90
5128;DHT22;2582;48.770;9.190;2023-05-16T04:03:15;13.30;99.90
5128;DHT22;2582;48.770;9.190;2023-05-16T04:05:41;13.30;99.90
5128;DHT22;2582;48.770;9.190;2023-05-16T04:08:06;13.30;99.90
5128;DHT22;2582;48.770;9.190;2023-05-16T04:10:32;13.40;99.90
5128;DHT22;2582;48.770;9.190;2023-05-16T04:12:57;13.30;99.90
5128;DHT22;2582;48.770;9.190;2023-05-16T04:15:23;13.40;99.90
5128;DHT22;2582;48.770;9.190;2023-05-16T04:17:49;13.40;99.90
5128;DHT22;2582;48.770;9.190;2023-05-16T04:20:14;13.50;99.90
5128;DHT22;2582;48.770;9.190;2023-05-16T04:22:41;13.30;99.90
5128;DHT22;2582;48.770;9.190;2023-05-16T04:25:07;13.40;99.90
5128;DHT22;2582;48.770;9.190;2023-05-16T04:27:32;13.40;99.90
5128;DHT22;2582;48.770;9.190;2023-05-16T04:29:58;13.60;99.90
5128;DHT22;2582;48.770;9.190;2023-05-16T04:32:24;13.70;99.90
5128;DHT22;2582;48.770;9.190;2023-05-16T04:34:50;13.50;99.90
5128;DHT22;2582;48.770;9.190;2023-05-16T04:37:18;13.50;99.90
5128;DHT22;2582;48.770;9.190;2023-05-16T04:39:45;13.50;99.90
5128;DHT22;2582;48.770;9.190;2023-05-16T04:42:11;13.60;99.90
5128;DHT22;2582;48.770;9.190;2023-05-16T04:44:36;13.70;99.90
5128;DHT22;2582;48.770;9.190;2023-05-16T04:47:02;13.80;99.90
5128;DHT22;2582;48.770;9.190;2023-05-16T04:49:27;13.90;99.90
5128;DHT22;2582;48.770;9.190;2023-05-16T04:51:53;13.90;99.90
5128;DHT22;2582;48.770;9.190;2023-05-16T04:54:18;13.60;99.90
5128;DHT22;2582;48.770;9.190;2023-05-16T04:56:44;13.40;99.90
5128;DHT22;2582;48.770;9.190;2023-05-16T04:59:09;13.50;99.90
5128;DHT22;2582;48.770;9.190;2023-05-16T05:01:35;13.60;99.90
5128;DHT22;2582;48.770;9.190;2023-05-16T05:04:01;13.50;99.90
5128;DHT22;2582;48.770;9.190;2023-05-16T05:06:27;13.60;99.90
5128;DHT22;2582;48.770;9.190;2023-05-16T05:08:53;13.70;99.90
5128;DHT22;2582;48.770;9.190;2023-05-16T05:11:19;13.80;99.90
5128;DHT22;2582;48.770;9.190;2023-05-16T05:13:45;14.00;99.90
5128;DHT22;2582;48.770;9.190;2023-05-16T05:16:10;13.80;99.90
5128;DHT22;2582;48.770;9.190;2023-05-16T05:18:37;13.70;99.90
5128;DHT22;2582;48.770;9.190;2023-05-16T05:21:03;13.70;99.90
5128;DHT22;2582;48.770;9.190;2023-05-16T05:23:29;13.60;99.90
5128;DHT22;2582;48.770;9.190;2023-05-16T05:25:55;13.50;99.90
5128;DHT22;2582;48.770;9.190;2023-05-16T05:28:20;13.50;99.90
5128;DHT22;2582;48.770;9.190;2023-05-16T05:30:46;13.50;99.90
5128;DHT22;2582;48.770;9.190;2023-05-16T05:33:15;13.50;99.90
5128;DHT22;2582;48.770;9.190;2023-05-16T05:35:41;13.50;99.90
5128;DHT22;2582;48.770;9.190;2023-05-16T05:38:06;13.50;99.90
5128;DHT22;2582;48.770;9.190;2023-05-16T05:40:32;13.50;99.90
5128;DHT22;2582;48.770;9.190;2023-05-16T05:42:58;13.60;99.90
5128;DHT22;2582;48.770;9.190;2023-05-16T05:45:23;13.70;99.90
5128;DHT22;2582;48.770;9.190;2023-05-16T05:47:49;13.50;99.90
5128;DHT22;2582;48.770;9.190;2023-05-16T05:50:15;13.50;99.90
5128;DHT22;2582;48.770;9.190;2023-05-16T05:52:41;13.60;99.90
5128;DHT22;2582;48.770;9.190;2023-05-16T05:55:07;13.70;99.90
5128;DHT22;2582;48.770;9.190;2023-05-16T05:57:32;13.60;99.90
5128;DHT22;2582;48.770;9.190;2023-05-16T05:59:58;13.50;99.90
5128;DHT22;2582;48.770;9.190;2023-05-16T06:02:23;13.50;99.90
5128;DHT22;2582;48.770;9.190;2023-05-16T06:04:49;13.70;99.90
5128;DHT22;2582;48.770;9.190;2023-05-16T06:07:14;13.70;99.90
5128;DHT22;2582;48.770;9.190;2023-05-16T06:09:41;13.50;99.90
5128;DHT22;2582;48.770;9.190;2023-05-16T06:12:08;13.70;99.90
5128;DHT22;2582;48.770;9.190;2023-05-16T06:14:33;13.50;99.90
5128;DHT22;2582;48.770;9.190;2023-05-16T06:16:59;13.60;99.90
5128;DHT22;2582;48.770;9.190;2023-05-16T06:19:24;13.50;99.90
5128;DHT22;2582;48.770;9.190;2023-05-16T06:21:50;13.50;99.90
5128;DHT22;2582;48.770;9.190;2023-05-16T06:24:15;13.60;99.90
5128;DHT22;2582;48.770;9.190;2023-05-16T06:26:41;13.50;99.90
5128;DHT22;2582;48.770;9.190;2023-05-16T06:29:07;13.40;99.90
5128;DHT22;2582;48.770;9.190;2023-05-16T06:31:32;13.40;99.90
5128;DHT22;2582;48.770;9.190;2023-05-16T06:33:58;13.40;99.90
5128;DHT22;2582;48.770;9.190;2023-05-16T06:36:23;13.50;99.90
5128;DHT22;2582;48.770;9.190;2023-05-16T06:38:49;13.40;99.90
5128;DHT22;2582;48.770;9.190;2023-05-16T06:41:15;13.50;99.90
5128;DHT22;2582;48.770;9.190;2023-05-16T06:43:40;13.60;99.90
5128;DHT22;2582;48.770;9.190;2023-05-16T06:46:06;13.70;99.90
5128;DHT22;2582;48.770;9.190;2023-05-16T06:48:31;13.70;99.90
5128;DHT22;2582;48.770;9.190;2023-05-16T06:50:57;13.70;99.90
5128;DHT22;2582;48.770;9.190;2023-05-16T06:53:23;13.70;99.90
5128;DHT22;2582;48.770;9.190;2023-05-16T06:55:48;13.70;99.90
5128;DHT22;2582;48.770;9.190;2023-05-16T06:58:14;13.80;99.90
5128;DHT22;2582;48.770;9.190;2023-05-16T07:00:40;13.90;99.90
5128;DHT22;2582;48.770;9.190;2023-05-16T07:03:05;14.00;99.90
5128;DHT22;2582;48.770;9.190;2023-05-16T07:05:31;14.00;99.90
5128;DHT22;2582;48.770;9.190;2023-05-16T07:07:57;13.90;99.90
5128;DHT22;2582;48.770;9.190;2023-05-16T07:10:22;13.80;99.90
5128;DHT22;2582;48.770;9.190;2023-05-16T07:12:48;13.50;99.90
5128;DHT22;2582;48.770;9.190;2023-05-16T07:15:13;13.40;99.90
5128;DHT22;2582;48.770;9.190;2023-05-16T07:17:39;13.40;99.90
5128;DHT22;2582;48.770;9.190;2023-05-16T07:20:05;13.40;99.90
5128;DHT22;2582;48.770;9.190;2023-05-16T07:22:32;13.60;99.90
5128;DHT22;2582;48.770;9.190;2023-05-16T07:24:58;13.50;99.90
5128;DHT22;2582;48.770;9.190;2023-05-16T07:27:25;13.70;99.90
5128;DHT22;2582;48.770;9.190;2023-05-16T07:29:51;13.80;99.90
5128;DHT22;2582;48.770;9.190;2023-05-16T07:32:17;14.00;99.90
5128;DHT22;2582;48.770;9.190;2023-05-16T07:34:42;13.80;99.90
5128;DHT22;2582;48.770;9.190;2023-05-16T07:37:08;13.60;99.90
5128;DHT22;2582;48.770;9.190;2023-05-16T07:39:38;13.50;99.90
5128;DHT22;2582;48.770;9.190;2023-05-16T07:42:05;13.40;99.90
5128;DHT22;2582;48.770;9.190;2023-05-16T07:44:30;13.40;99.90
5128;DHT22;2582;48.770;9.190;2023-05-16T07:46:56;13.50;99.90
5128;DHT22;2582;48.770;9.190;2023-05-16T07:49:21;13.70;99.90
5128;DHT22;2582;48.770;9.190;2023-05-16T07:51:47;13.70;99.90
5128;DHT22;2582;48.770;9.190;2023-05-16T07:54:12;13.70;99.90
5128;DHT22;2582;48.770;9.190;2023-05-16T07:56:38;13.60;99.90
5128;DHT22;2582;48.770;9.190;2023-05-16T07:59:04;13.60;99.90
5128;DHT22;2582;48.770;9.190;2023-05-16T08:01:30;13.50;99.90
5128;DHT22;2582;48.770;9.190;2023-05-16T08:03:55;13.60;99.90
5128;DHT22;2582;48.770;9.190;2023-05-16T08:06:21;13.50;99.90
5128;DHT22;2582;48.770;9.190;2023-05-16T08:08:46;13.70;99.90
5128;DHT22;2582;48.770;9.190;2023-05-16T08:11:12;13.80;99.90
5128;DHT22;2582;48.770;9.190;2023-05-16T08:13:37;13.80;99.90
5128;DHT22;2582;48.770;9.190;2023-05-16T08:16:03;13.90;99.90
5128;DHT22;2582;48.770;9.190;2023-05-16T08:18:29;14.00;99.90
5128;DHT22;2582;48.770;9.190;2023-05-16T08:20:54;13.80;99.90
5128;DHT22;2582;48.770;9.190;2023-05-16T08:23:20;13.70;99.90
5128;DHT22;2582;48.770;9.190;2023-05-16T08:25:45;13.60;99.90
5128;DHT22;2582;48.770;9.190;2023-05-16T08:28:11;13.60;99.90
5128;DHT22;2582;48.770;9.190;2023-05-16T08:30:37;13.60;99.90
5128;DHT22;2582;48.770;9.190;2023-05-16T08:33:02;13.40;99.90
5128;DHT22;2582;48.770;9.190;2023-05-16T08:35:29;13.60;99.90
5128;DHT22;2582;48.770;9.190;2023-05-16T08:37:56;13.50;99.90
5128;DHT22;2582;48.770;9.190;2023-05-16T08:40:26;13.40;99.90
5128;DHT22;2582;48.770;9.190;2023-05-16T08:42:52;13.40;99.90
5128;DHT22;2582;48.770;9.190;2023-05-16T08:45:18;13.30;99.90
5128;DHT22;2582;48.770;9.190;2023-05-16T08:47:44;13.20;99.90
5128;DHT22;2582;48.770;9.190;2023-05-16T08:50:11;13.20;99.90
5128;DHT22;2582;48.770;9.190;2023-05-16T08:52:41;13.30;99.90
5128;DHT22;2582;48.770;9.190;2023-05-16T08:55:08;13.40;99.90
5128;DHT22;2582;48.770;9.190;2023-05-16T08:57:34;13.50;99.90
5128;DHT22;2582;48.770;9.190;2023-05-16T09:00:00;13.40;99.90
5128;DHT22;2582;48.770;9.190;2023-05-16T09:02:27;13.60;99.90
5128;DHT22;2582;48.770;9.190;2023-05-16T09:04:54;13.50;99.90
5128;DHT22;2582;48.770;9.190;2023-05-16T09:07:21;13.60;99.90
5128;DHT22;2582;48.770;9.190;2023-05-16T09:09:47;13.70;99.90
5128;DHT22;2582;48.770;9.190;2023-05-16T09:12:13;13.90;99.90
5128;DHT22;2582;48.770;9.190;2023-05-16T09:14:39;13.90;99.90
5128;DHT22;2582;48.770;9.190;2023-05-16T09:17:05;13.90;99.90
5128;DHT22;2582;48.770;9.190;2023-05-16T09:19:37;13.80;99.90
5128;DHT22;2582;48.770;9.190;2023-05-16T09:22:08;13.80;99.90
5128;DHT22;2582;48.770;9.190;2023-05-16T09:24:43;14.00;99.90
5128;DHT22;2582;48.770;9.190;2023-05-16T09:27:11;14.00;99.90
5128;DHT22;2582;48.770;9.190;2023-05-16T09:29:39;13.90;99.90
5128;DHT22;2582;48.770;9.190;2023-05-16T09:32:15;13.70;99.90
5128;DHT22;2582;48.770;9.190;2023-05-16T09:34:48;13.50;99.90
5128;DHT22;2582;48.770;9.190;2023-05-16T09:37:14;13.50;99.90
5128;DHT22;2582;48.770;9.190;2023-05-16T09:39:48;13.50;99.90
5128;DHT22;2582;48.770;9.190;2023-05-16T09:42:14;13.60;99.90
5128;DHT22;2582;48.770;9.190;2023-05-16T09:44:44;13.70;99.90
5128;DHT22;2582;48.770;9.190;2023-05-16T09:47:13;13.70;99.90
5128;DHT22;2582;48.770;9.190;2023-05-16T09:49:40;13.80;99.90
5128;DHT22;2582;48.770;9.190;2023-05-16T09:52:05;14.00;99.90
5128;DHT22;2582;48.770;9.190;2023-05-16T09:54:32;14.50;99.90
5128;DHT22;2582;48.770;9.190;2023-05-16T09:56:58;14.90;99.90
5128;DHT22;2582;48.770;9.190;2023-05-16T09:59:27;15.30;99.90
5128;DHT22;2582;48.770;9.190;2023-05-16T10:01:53;16.00;99.90
5128;DHT22;2582;48.770;9.190;2023-05-16T10:04:19;15.80;99.90
5128;DHT22;2582;48.770;9.190;2023-05-16T10:06:45;15.70;99.90
5128;DHT22;2582;48.770;9.190;2023-05-16T10:09:12;15.40;99.90
5128;DHT22;2582;48.770;9.190;2023-05-16T10:11:41;15.20;99.90
5128;DHT22;2582;48.770;9.190;2023-05-16T10:14:11;14.90;99.90
5128;DHT22;2582;48.770;9.190;2023-05-16T10:16:42;14.50;99.90
5128;DHT22;2582;48.770;9.190;2023-05-16T10:19:08;14.50;99.90
5128;DHT22;2582;48.770;9.190;2023-05-16T10:21:34;14.40;99.90
5128;DHT22;2582;48.770;9.190;2023-05-16T10:24:02;14.70;99.90
5128;DHT22;2582;48.770;9.190;2023-05-16T10:26:31;14.90;99.90
5128;DHT22;2582;48.770;9.190;2023-05-16T10:28:57;15.00;99.90
5128;DHT22;2582;48.770;9.190;2023-05-16T10:31:23;15.20;99.90
5128;DHT22;2582;48.770;9.190;2023-05-16T10:33:50;15.40;99.90
5128;DHT22;2582;48.770;9.190;2023-05-16T10:36:16;15.50;99.90
5128;DHT22;2582;48.770;9.190;2023-05-16T10:38:43;15.40;99.90
5128;DHT22;2582;48.770;9.190;2023-05-16T10:41:10;15.30;99.90
5128;DHT22;2582;48.770;9.190;2023-05-16T10:43:36;15.50;99.90
5128;DHT22;2582;48.770;9.190;2023-05-16T10:46:03;15.10;99.90
5128;DHT22;2582;48.770;9.190;2023-05-16T10:48:40;15.10;99.90
5128;DHT22;2582;48.770;9.190;2023-05-16T10:54:07;15.50;99.90
5128;DHT22;2582;48.770;9.190;2023-05-16T10:56:33;15.10;99.90
5128;DHT22;2582;48.770;9.190;2023-05-16T10:58:59;14.90;99.90
5128;DHT22;2582;48.770;9.190;2023-05-16T11:01:29;14.80;99.90
5128;DHT22;2582;48.770;9.190;2023-05-16T11:09:20;14.90;99.90
5128;DHT22;2582;48.770;9.190;2023-05-16T11:19:49;13.90;99.90
5128;DHT22;2582;48.770;9.190;2023-05-16T11:22:37;13.50;99.90
5128;DHT22;2582;48.770;9.190;2023-05-16T11:25:07;13.40;99.90
5128;DHT22;2582;48.770;9.190;2023-05-16T11:32:26;13.10;99.90
5128;DHT22;2582;48.770;9.190;2023-05-16T11:34:52;12.90;99.90
5128;DHT22;2582;48.770;9.190;2023-05-16T11:37:19;12.80;99.90
5128;DHT22;2582;48.770;9.190;2023-05-16T11:39:45;12.90;99.90
5128;DHT22;2582;48.770;9.190;2023-05-16T11:42:11;12.90;99.90
5128;DHT22;2582;48.770;9.190;2023-05-16T11:44:38;12.90;99.90
5128;DHT22;2582;48.770;9.190;2023-05-16T11:47:04;13.00;99.90
5128;DHT22;2582;48.770;9.190;2023-05-16T11:49:30;12.90;99.90
5128;DHT22;2582;48.770;9.190;2023-05-16T11:51:56;13.00;99.90
5128;DHT22;2582;48.770;9.190;2023-05-16T11:54:24;13.10;99.90
5128;DHT22;2582;48.770;9.190;2023-05-16T11:56:51;13.20;99.90
5128;DHT22;2582;48.770;9.190;2023-05-16T11:59:17;13.30;99.90
5128;DHT22;2582;48.770;9.190;2023-05-16T12:01:43;13.40;99.90
5128;DHT22;2582;48.770;9.190;2023-05-16T12:04:12;13.40;99.90
5128;DHT22;2582;48.770;9.190;2023-05-16T12:06:40;13.40;99.90
5128;DHT22;2582;48.770;9.190;2023-05-16T12:09:11;13.30;99.90
5128;DHT22;2582;48.770;9.190;2023-05-16T12:11:37;13.30;99.90
5128;DHT22;2582;48.770;9.190;2023-05-16T12:14:04;13.30;99.90
5128;DHT22;2582;48.770;9.190;2023-05-16T12:16:31;13.20;99.90
5128;DHT22;2582;48.770;9.190;2023-05-16T12:18:57;13.10;99.90
5128;DHT22;2582;48.770;9.190;2023-05-16T12:21:23;13.20;99.90
5128;DHT22;2582;48.770;9.190;2023-05-16T12:23:48;13.10;99.90
5128;DHT22;2582;48.770;9.190;2023-05-16T12:26:14;13.20;99.90
5128;DHT22;2582;48.770;9.190;2023-05-16T12:28:52;13.20;99.90
5128;DHT22;2582;48.770;9.190;2023-05-16T12:31:20;13.20;99.90
5128;DHT22;2582;48.770;9.190;2023-05-16T12:33:46;13.30;99.90
5128;DHT22;2582;48.770;9.190;2023-05-16T12:36:12;13.30;99.90
5128;DHT22;2582;48.770;9.190;2023-05-16T12:38:40;13.40;99.90
5128;DHT22;2582;48.770;9.190;2023-05-16T12:41:06;13.40;99.90
5128;DHT22;2582;48.770;9.190;2023-05-16T12:43:32;13.30;99.90
5128;DHT22;2582;48.770;9.190;2023-05-16T12:45:57;13.30;99.90
5128;DHT22;2582;48.770;9.190;2023-05-16T12:48:31;13.40;99.90
5128;DHT22;2582;48.770;9.190;2023-05-16T12:51:11;13.30;99.90
5128;DHT22;2582;48.770;9.190;2023-05-16T12:53:48;13.40;99.90
5128;DHT22;2582;48.770;9.190;2023-05-16T12:56:14;13.50;99.90
5128;DHT22;2582;48.770;9.190;2023-05-16T12:58:41;13.50;99.90
5128;DHT22;2582;48.770;9.190;2023-05-16T13:01:07;13.40;99.90
5128;DHT22;2582;48.770;9.190;2023-05-16T13:03:33;13.50;99.90
5128;DHT22;2582;48.770;9.190;2023-05-16T13:05:59;13.40;99.90
5128;DHT22;2582;48.770;9.190;2023-05-16T13:08:26;13.30;99.90
5128;DHT22;2582;48.770;9.190;2023-05-16T13:10:52;13.40;99.90
5128;DHT22;2582;48.770;9.190;2023-05-16T13:13:17;13.50;99.90
5128;DHT22;2582;48.770;9.190;2023-05-16T13:15:44;13.50;99.90
5128;DHT22;2582;48.770;9.190;2023-05-16T13:18:09;13.30;99.90
5128;DHT22;2582;48.770;9.190;2023-05-16T13:20:36;13.20;99.90
5128;DHT22;2582;48.770;9.190;2023-05-16T13:23:03;13.10;99.90
5128;DHT22;2582;48.770;9.190;2023-05-16T13:25:29;13.10;99.90
5128;DHT22;2582;48.770;9.190;2023-05-16T13:27:55;13.00;99.90
5128;DHT22;2582;48.770;9.190;2023-05-16T13:30:21;13.00;99.90
5128;DHT22;2582;48.770;9.190;2023-05-16T13:32:46;13.00;99.90
5128;DHT22;2582;48.770;9.190;2023-05-16T13:35:12;12.90;99.90
5128;DHT22;2582;48.770;9.190;2023-05-16T13:37:38;12.90;99.90
5128;DHT22;2582;48.770;9.190;2023-05-16T13:40:06;12.90;99.90
5128;DHT22;2582;48.770;9.190;2023-05-16T13:42:34;12.90;99.90
5128;DHT22;2582;48.770;9.190;2023-05-16T13:45:01;12.90;99.90
5128;DHT22;2582;48.770;9.190;2023-05-16T13:47:27;12.90;99.90
5128;DHT22;2582;48.770;9.190;2023-05-16T13:49:53;12.90;99.90
5128;DHT22;2582;48.770;9.190;2023-05-16T13:52:19;12.90;99.90
5128;DHT22;2582;48.770;9.190;2023-05-16T13:54:45;13.00;99.90
5128;DHT22;2582;48.770;9.190;2023-05-16T13:57:11;13.00;99.90
5128;DHT22;2582;48.770;9.190;2023-05-16T13:59:36;13.30;99.90
5128;DHT22;2582;48.770;9.190;2023-05-16T14:02:02;13.20;99.90
5128;DHT22;2582;48.770;9.190;2023-05-16T14:04:28;13.30;99.90
5128;DHT22;2582;48.770;9.190;2023-05-16T14:06:53;13.30;99.90
5128;DHT22;2582;48.770;9.190;2023-05-16T14:09:20;13.40;99.90
5128;DHT22;2582;48.770;9.190;2023-05-16T14:11:46;13.40;99.90
5128;DHT22;2582;48.770;9.190;2023-05-16T14:14:11;13.30;99.90
5128;DHT22;2582;48.770;9.190;2023-05-16T14:16:37;13.30;99.90
5128;DHT22;2582;48.770;9.190;2023-05-16T14:19:02;13.40;99.90
5128;DHT22;2582;48.770;9.190;2023-05-16T14:21:28;13.40;99.90
5128;DHT22;2582;48.770;9.190;2023-05-16T14:23:53;13.40;99.90
5128;DHT22;2582;48.770;9.190;2023-05-16T14:26:19;13.40;99.90
5128;DHT22;2582;48.770;9.190;2023-05-16T14:28:49;13.40;99.90
5128;DHT22;2582;48.770;9.190;2023-05-16T14:31:15;13.40;99.90
5128;DHT22;2582;48.770;9.190;2023-05-16T14:33:41;13.50;99.90
5128;DHT22;2582;48.770;9.190;2023-05-16T14:36:08;13.60;99.90
5128;DHT22;2582;48.770;9.190;2023-05-16T14:38:33;13.50;99.90
5128;DHT22;2582;48.770;9.190;2023-05-16T14:40:59;13.30;99.90
5128;DHT22;2582;48.770;9.190;2023-05-16T14:43:25;13.30;99.90
5128;DHT22;2582;48.770;9.190;2023-05-16T14:45:51;13.20;99.90
5128;DHT22;2582;48.770;9.190;2023-05-16T14:48:16;13.20;99.90
5128;DHT22;2582;48.770;9.190;2023-05-16T14:50:42;13.30;99.90
5128;DHT22;2582;48.770;9.190;2023-05-16T14:53:07;13.40;99.90
5128;DHT22;2582;48.770;9.190;2023-05-16T14:55:33;13.40;99.90
5128;DHT22;2582;48.770;9.190;2023-05-16T14:57:59;13.60;99.90
5128;DHT22;2582;48.770;9.190;2023-05-16T15:00:24;13.80;99.90
5128;DHT22;2582;48.770;9.190;2023-05-16T15:02:51;13.90;99.90
5128;DHT22;2582;48.770;9.190;2023-05-16T15:05:16;14.00;99.90
5128;DHT22;2582;48.770;9.190;2023-05-16T15:07:42;13.90;99.90
5128;DHT22;2582;48.770;9.190;2023-05-16T15:10:11;13.80;99.90
5128;DHT22;2582;48.770;9.190;2023-05-16T15:12:36;13.80;99.90
5128;DHT22;2582;48.770;9.190;2023-05-16T15:15:05;14.00;99.90
5128;DHT22;2582;48.770;9.190;2023-05-16T15:17:31;14.00;99.90
5128;DHT22;2582;48.770;9.190;2023-05-16T15:19:57;14.20;99.90
5128;DHT22;2582;48.770;9.190;2023-05-16T15:22:22;14.40;99.90
5128;DHT22;2582;48.770;9.190;2023-05-16T15:24:48;14.50;99.90
5128;DHT22;2582;48.770;9.190;2023-05-16T15:27:14;14.60;99.90
5128;DHT22;2582;48.770;9.190;2023-05-16T15:29:39;14.80;99.90
5128;DHT22;2582;48.770;9.190;2023-05-16T15:32:05;14.90;99.90
5128;DHT22;2582;48.770;9.190;2023-05-16T15:34:32;14.70;99.90
5128;DHT22;2582;48.770;9.190;2023-05-16T15:36:59;14.70;99.90
5128;DHT22;2582;48.770;9.190;2023-05-16T15:39:24;14.60;99.90
5128;DHT22;2582;48.770;9.190;2023-05-16T15:41:51;14.50;99.90
5128;DHT22;2582;48.770;9.190;2023-05-16T15:44:17;14.50;99.90
5128;DHT22;2582;48.770;9.190;2023-05-16T15:46:42;14.70;99.90
5128;DHT22;2582;48.770;9.190;2023-05-16T15:49:08;14.90;99.90
5128;DHT22;2582;48.770;9.190;2023-05-16T15:51:34;14.80;99.90
5128;DHT22;2582;48.770;9.190;2023-05-16T15:54:01;14.70;99.90
5128;DHT22;2582;48.770;9.190;2023-05-16T15:56:26;14.90;99.90
5128;DHT22;2582;48.770;9.190;2023-05-16T15:58:54;14.80;99.90
5128;DHT22;2582;48.770;9.190;2023-05-16T16:01:20;14.70;99.90
5128;DHT22;2582;48.770;9.190;2023-05-16T16:03:45;14.60;99.90
5128;DHT22;2582;48.770;9.190;2023-05-16T16:06:11;14.70;99.90
5128;DHT22;2582;48.770;9.190;2023-05-16T16:08:36;14.70;99.90
5128;DHT22;2582;48.770;9.190;2023-05-16T16:11:02;14.60;99.90
5128;DHT22;2582;48.770;9.190;2023-05-16T16:13:29;14.50;99.90
5128;DHT22;2582;48.770;9.190;2023-05-16T16:15:55;14.30;99.90
5128;DHT22;2582;48.770;9.190;2023-05-16T16:18:21;14.20;99.90
5128;DHT22;2582;48.770;9.190;2023-05-16T16:20:47;14.20;99.90
5128;DHT22;2582;48.770;9.190;2023-05-16T16:23:12;14.10;99.90
5128;DHT22;2582;48.770;9.190;2023-05-16T16:25:38;14.00;99.90
5128;DHT22;2582;48.770;9.190;2023-05-16T16:28:04;13.90;99.90
5128;DHT22;2582;48.770;9.190;2023-05-16T16:30:29;13.90;99.90
5128;DHT22;2582;48.770;9.190;2023-05-16T16:32:55;14.10;99.90
5128;DHT22;2582;48.770;9.190;2023-05-16T16:35:21;14.20;99.90